Time;durP1;ratioP1;P1;durP2;ratioP2;P2;SDS_P1;SDS_P2;PMS_P1;PMS_P2;Temp;Humidity;BMP_temperature;BMP_pressure;BME280_temperature;BME280_humidity;BME280_pressure;Samples;Min_cycle;Max_cycle;Signal;HPM_P1;HPM_P2
2022/11/02 00:00:22;;;;;;;4.13;1.77;;;13.40;99.90;;;;;;5112684;28;20462;-72
2022/11/02 00:02:47;;;;;;;9.20;1.87;;;13.50;99.90;;;;;;5113177;28;20414;-72
2022/11/02 00:05:14;;;;;;;3.67;2.00;;;13.50;99.90;;;;;;5112441;28;20496;-72
2022/11/02 00:07:41;;;;;;;5.50;1.27;;;13.60;99.90;;;;;;5111964;28;20634;-72
2022/11/02 00:10:08;;;;;;;6.23;1.20;;;13.60;99.90;;;;;;5112959;28;20438;-72
2022/11/02 00:12:34;;;;;;;2.47;1.10;;;13.70;99.90;;;;;;5113026;28;20402;-74
2022/11/02 00:14:59;;;;;;;3.63;1.40;;;13.70;99.90;;;;;;5111484;28;20421;-71
2022/11/02 00:17:25;;;;;;;5.77;1.60;;;13.80;99.90;;;;;;5112996;28;20214;-71
2022/11/02 00:19:50;;;;;;;2.80;1.33;;;13.90;99.90;;;;;;5112663;28;20193;-72
2022/11/02 00:22:16;;;;;;;3.20;1.13;;;13.90;99.90;;;;;;5112881;28;20169;-71
2022/11/02 00:24:42;;;;;;;6.90;1.40;;;13.90;99.90;;;;;;5112582;28;20596;-71
2022/11/02 00:27:07;;;;;;;3.33;1.07;;;13.90;99.90;;;;;;5111666;28;20574;-71
2022/11/02 00:29:34;;;;;;;5.73;1.30;;;13.90;99.90;;;;;;5112564;28;20241;-72
2022/11/02 00:31:59;;;;;;;7.53;0.93;;;13.90;99.90;;;;;;5111575;28;20169;-71
2022/11/02 00:34:25;;;;;;;5.00;1.43;;;13.90;99.90;;;;;;5112554;28;20407;-71
2022/11/02 00:36:51;;;;;;;2.63;1.40;;;13.90;99.90;;;;;;5112802;28;20172;-71
2022/11/02 00:39:16;;;;;;;6.77;1.87;;;13.90;99.90;;;;;;5112364;28;20227;-72
2022/11/02 00:41:42;;;;;;;3.13;1.20;;;13.90;99.90;;;;;;5112733;28;20195;-71
2022/11/02 00:44:07;;;;;;;4.93;1.50;;;13.90;99.90;;;;;;5112580;28;20169;-72
2022/11/02 00:46:33;;;;;;;8.17;1.80;;;13.80;99.90;;;;;;5112124;28;20535;-72
2022/11/02 00:48:58;;;;;;;6.20;1.20;;;13.80;99.90;;;;;;5112425;28;20168;-72
2022/11/02 00:51:24;;;;;;;4.93;1.97;;;13.80;99.90;;;;;;5111194;28;20180;-72
2022/11/02 00:53:49;;;;;;;3.40;1.00;;;13.70;99.90;;;;;;5112406;28;20165;-72
2022/11/02 00:56:15;;;;;;;3.57;1.67;;;13.70;99.90;;;;;;5111659;28;20180;-72
2022/11/02 00:58:40;;;;;;;1.67;1.23;;;13.70;99.90;;;;;;5112183;28;20177;-72
2022/11/02 01:01:07;;;;;;;4.40;1.40;;;13.70;99.90;;;;;;5112023;28;20246;-72
2022/11/02 01:03:32;;;;;;;8.10;2.20;;;13.60;99.90;;;;;;5112433;28;20165;-73
2022/11/02 01:05:58;;;;;;;4.20;1.67;;;13.60;99.90;;;;;;5112036;28;20829;-72
2022/11/02 01:08:24;;;;;;;3.37;1.40;;;13.60;99.90;;;;;;5112364;28;20863;-72
2022/11/02 01:10:49;;;;;;;3.30;1.40;;;13.50;99.90;;;;;;5111951;28;20192;-72
2022/11/02 01:13:15;;;;;;;4.73;1.40;;;13.40;99.90;;;;;;5112182;28;20176;-72
2022/11/02 01:15:42;;;;;;;4.10;1.40;;;13.40;99.90;;;;;;5112083;28;20511;-72
2022/11/02 01:18:08;;;;;;;2.73;1.23;;;13.30;99.90;;;;;;5112173;28;20395;-72
2022/11/02 01:20:33;;;;;;;6.77;1.60;;;13.30;99.90;;;;;;5111869;28;20461;-72
2022/11/02 01:22:59;;;;;;;4.47;1.30;;;13.30;99.90;;;;;;5112120;28;20773;-72
2022/11/02 01:25:24;;;;;;;4.47;1.30;;;13.30;99.90;;;;;;5111904;28;20658;-72
2022/11/02 01:27:50;;;;;;;4.83;1.40;;;13.30;99.90;;;;;;5112321;28;20176;-72
2022/11/02 01:30:15;;;;;;;3.83;1.20;;;13.30;99.90;;;;;;5111860;28;20696;-72
2022/11/02 01:32:41;;;;;;;8.30;1.40;;;13.20;99.90;;;;;;5112144;28;20674;-73
2022/11/02 01:35:07;;;;;;;2.90;1.10;;;13.10;99.90;;;;;;5111908;28;20161;-72
2022/11/02 01:37:34;;;;;;;2.77;1.37;;;13.10;99.90;;;;;;5112086;28;20165;-72
2022/11/02 01:39:59;;;;;;;2.37;1.47;;;13.00;99.90;;;;;;5111795;28;20986;-72
2022/11/02 01:42:27;;;;;;;7.03;2.03;;;13.00;99.90;;;;;;5112006;28;20399;-72
2022/11/02 01:44:53;;;;;;;3.17;1.50;;;13.00;99.90;;;;;;5111839;28;20161;-72
2022/11/02 01:47:34;;;;;;;5.80;1.57;;;13.00;99.90;;;;;;5112057;28;20409;-72
2022/11/02 01:50:24;;;;;;;3.20;1.57;;;13.00;99.90;;;;;;5110378;28;20220;-72
2022/11/02 01:52:49;;;;;;;4.07;1.50;;;13.00;99.90;;;;;;5111347;28;20411;-72
2022/11/02 01:55:23;;;;;;;8.97;1.50;;;13.00;99.90;;;;;;5111723;28;20891;-72
2022/11/02 01:57:54;;;;;;;4.33;1.40;;;13.00;99.90;;;;;;5111981;28;20185;-72
2022/11/02 02:00:20;;;;;;;5.60;1.70;;;13.00;99.90;;;;;;5111653;28;20462;-72
2022/11/02 02:03:04;;;;;;;2.07;1.43;;;13.00;99.90;;;;;;5113781;28;20918;-72
2022/11/02 02:05:32;;;;;;;3.87;1.73;;;12.90;99.90;;;;;;5115573;28;20810;-72
2022/11/02 02:07:58;;;;;;;5.67;1.53;;;12.90;99.90;;;;;;5115516;27;20430;-72
2022/11/02 02:10:23;;;;;;;11.13;2.10;;;12.90;99.90;;;;;;5115168;28;20469;-72
2022/11/02 02:12:49;;;;;;;3.93;1.50;;;12.80;99.90;;;;;;5115513;28;20169;-72
2022/11/02 02:15:15;;;;;;;4.57;1.20;;;12.80;99.90;;;;;;5115176;28;20204;-72
2022/11/02 02:17:59;;;;;;;6.87;2.27;;;12.80;99.90;;;;;;5114026;28;20222;-72
2022/11/02 02:20:45;;;;;;;6.73;1.63;;;12.90;99.90;;;;;;5114987;28;20223;-72
2022/11/02 02:23:47;;;;;;;3.87;1.60;;;13.00;99.90;;;;;;5094852;28;20458;-72
2022/11/02 02:26:45;;;;;;;10.50;1.70;;;13.10;99.90;;;;;;5094640;28;20480;-72
2022/11/02 02:29:14;;;;;;;4.30;1.90;;;13.10;99.90;;;;;;5100120;28;20434;-72
2022/11/02 02:31:45;;;;;;;3.30;1.10;;;13.10;99.90;;;;;;5115143;28;20414;-72
2022/11/02 02:34:22;;;;;;;6.50;1.60;;;13.10;99.90;;;;;;5114967;28;20397;-73
2022/11/02 02:37:00;;;;;;;6.90;1.30;;;13.10;99.90;;;;;;5115183;28;20936;-72
2022/11/02 02:39:47;;;;;;;2.67;1.40;;;13.00;99.90;;;;;;5114763;28;20804;-73
2022/11/02 02:42:26;;;;;;;7.23;1.50;;;12.90;99.90;;;;;;5114914;28;20966;-72
2022/11/02 02:45:15;;;;;;;6.83;1.80;;;12.90;99.90;;;;;;5113356;28;20759;-72
2022/11/02 02:47:48;;;;;;;6.20;2.03;;;12.90;99.90;;;;;;5114790;28;20399;-72
2022/11/02 02:50:18;;;;;;;5.07;1.00;;;12.90;99.90;;;;;;5114592;28;20473;-73
2022/11/02 02:52:46;;;;;;;4.97;1.30;;;12.80;99.90;;;;;;5114810;28;20395;-72
2022/11/02 02:55:19;;;;;;;3.60;1.67;;;12.90;99.90;;;;;;5114472;28;20915;-73
2022/11/02 02:57:46;;;;;;;9.33;1.83;;;12.80;99.90;;;;;;5114749;28;20390;-72
2022/11/02 03:00:15;;;;;;;1.83;1.23;;;12.90;99.90;;;;;;5114326;28;20434;-72
2022/11/02 03:02:42;;;;;;;3.27;1.97;;;12.90;99.90;;;;;;5114575;28;20402;-73
2022/11/02 03:05:25;;;;;;;7.40;1.77;;;12.90;99.90;;;;;;5114219;28;20402;-72
2022/11/02 03:07:53;;;;;;;5.07;1.40;;;13.00;99.90;;;;;;5112974;28;20959;-73
2022/11/02 03:10:41;;;;;;;5.57;1.20;;;13.00;99.90;;;;;;5114394;28;20434;-72
2022/11/02 03:13:35;;;;;;;5.47;1.50;;;13.10;99.90;;;;;;5084507;28;20414;-72
2022/11/02 03:16:31;;;;;;;8.80;1.63;;;13.10;99.90;;;;;;5113554;28;20738;-72
2022/11/02 03:19:14;;;;;;;2.47;1.40;;;13.10;99.90;;;;;;5114227;28;20489;-72
2022/11/02 03:21:42;;;;;;;6.40;1.50;;;13.20;99.90;;;;;;5114135;28;20442;-72
2022/11/02 03:24:26;;;;;;;2.47;1.20;;;13.20;99.90;;;;;;5114045;28;20454;-72
2022/11/02 03:27:10;;;;;;;4.50;1.30;;;13.20;99.90;;;;;;5113664;28;20418;-72
2022/11/02 03:29:43;;;;;;;5.90;1.37;;;13.30;99.90;;;;;;5113743;28;20528;-73
2022/11/02 03:32:22;;;;;;;4.50;1.60;;;13.30;99.90;;;;;;5113977;28;20395;-72
2022/11/02 03:34:54;;;;;;;3.80;1.60;;;13.30;99.90;;;;;;5113615;28;20395;-72
2022/11/02 03:37:28;;;;;;;3.20;1.40;;;13.30;99.90;;;;;;5113875;28;20399;-73
2022/11/02 03:40:02;;;;;;;5.80;1.53;;;13.30;99.90;;;;;;5113758;28;20781;-72
2022/11/02 03:42:31;;;;;;;2.53;1.20;;;13.30;99.90;;;;;;5113851;28;20445;-72
2022/11/02 03:45:02;;;;;;;4.33;1.63;;;13.40;99.90;;;;;;5113253;28;20954;-73
2022/11/02 03:47:32;;;;;;;9.63;3.03;;;13.50;99.90;;;;;;5112268;28;20398;-73
2022/11/02 03:49:59;;;;;;;2.37;1.27;;;13.50;99.90;;;;;;5113640;27;20468;-72
2022/11/02 03:52:29;;;;;;;2.00;1.50;;;13.50;99.90;;;;;;5113687;28;20478;-72
2022/11/02 03:55:07;;;;;;;9.40;2.63;;;13.50;99.90;;;;;;5113353;28;20855;-72
2022/11/02 03:57:44;;;;;;;5.57;1.30;;;13.50;99.90;;;;;;5113492;28;20387;-72
2022/11/02 04:00:13;;;;;;;2.60;1.73;;;13.50;99.90;;;;;;5113160;28;21033;-72
2022/11/02 04:02:41;;;;;;;2.80;1.10;;;13.50;99.90;;;;;;5113063;27;20432;-72
2022/11/02 04:05:07;;;;;;;2.80;1.57;;;13.40;99.90;;;;;;5112925;28;20503;-72
2022/11/02 04:10:21;;;;;;;3.20;1.57;;;13.30;99.90;;;;;;5113083;28;20465;-73
2022/11/02 04:15:31;;;;;;;3.27;1.50;;;13.20;99.90;;;;;;5113055;28;20691;-72
2022/11/02 04:20:41;;;;;;;6.10;1.20;;;13.20;99.90;;;;;;5092671;28;20769;-73
2022/11/02 04:25:53;;;;;;;7.20;1.20;;;13.20;99.90;;;;;;5112710;28;20176;-72
2022/11/02 04:28:19;;;;;;;2.80;1.37;;;13.20;99.90;;;;;;5112811;28;20399;-72
2022/11/02 04:30:45;;;;;;;3.43;1.30;;;13.20;99.90;;;;;;5112534;28;20456;-72
2022/11/02 04:35:55;;;;;;;5.10;1.60;;;13.10;99.90;;;;;;5112500;28;20172;-72
2022/11/02 04:43:49;;;;;;;3.90;1.50;;;13.00;99.90;;;;;;5112131;28;20459;-72
2022/11/02 04:46:15;;;;;;;8.30;2.10;;;13.00;99.90;;;;;;5112226;28;20406;-73
2022/11/02 04:48:40;;;;;;;2.17;1.00;;;13.00;99.90;;;;;;5112524;28;20161;-73
2022/11/02 04:51:06;;;;;;;9.33;1.60;;;13.00;99.90;;;;;;5112552;28;20237;-72
2022/11/02 04:53:31;;;;;;;6.53;1.43;;;13.00;99.90;;;;;;5112333;28;20260;-72
2022/11/02 04:55:57;;;;;;;3.63;1.40;;;12.90;99.90;;;;;;5111992;28;20221;-72
2022/11/02 04:58:22;;;;;;;7.23;2.00;;;12.90;99.90;;;;;;5111146;28;20196;-72
2022/11/02 05:00:48;;;;;;;5.70;1.50;;;12.90;99.90;;;;;;5112284;28;20259;-72
2022/11/02 05:03:13;;;;;;;4.47;1.30;;;12.90;99.90;;;;;;5112071;28;20167;-72
2022/11/02 05:05:39;;;;;;;4.13;1.13;;;12.90;99.90;;;;;;5111858;28;20226;-72
2022/11/02 05:08:04;;;;;;;8.80;3.73;;;12.80;99.90;;;;;;5112266;28;20169;-72
2022/11/02 05:10:30;;;;;;;4.53;1.20;;;12.80;99.90;;;;;;5112116;28;20192;-72
2022/11/02 05:12:59;;;;;;;9.70;1.63;;;12.80;99.90;;;;;;5112089;28;20172;-73
2022/11/02 05:15:24;;;;;;;2.63;1.03;;;12.80;99.90;;;;;;5111620;28;20529;-72
2022/11/02 05:17:50;;;;;;;2.53;1.10;;;12.70;99.90;;;;;;5112236;28;20493;-72
2022/11/02 05:20:15;;;;;;;2.67;1.50;;;12.70;99.90;;;;;;5111889;28;20224;-72
2022/11/02 05:22:41;;;;;;;6.13;1.97;;;12.70;99.90;;;;;;5112102;28;20165;-72
2022/11/02 05:25:08;;;;;;;2.07;1.17;;;12.70;99.90;;;;;;5111775;28;20180;-72
2022/11/02 05:27:34;;;;;;;2.57;1.30;;;12.70;99.90;;;;;;5112109;28;20844;-72
2022/11/02 05:29:59;;;;;;;3.00;1.67;;;12.70;99.90;;;;;;5112121;28;20422;-73
2022/11/02 05:32:26;;;;;;;5.20;1.37;;;12.70;99.90;;;;;;5111982;28;20169;-72
2022/11/02 05:34:51;;;;;;;4.60;0.90;;;12.60;99.90;;;;;;5111552;28;20181;-72
2022/11/02 05:37:17;;;;;;;4.50;1.60;;;12.60;99.90;;;;;;5113346;28;20405;-72
2022/11/02 05:39:43;;;;;;;30.27;14.53;;;12.60;99.90;;;;;;5115881;28;20188;-72
2022/11/02 05:42:08;;;;;;;3.73;1.90;;;12.50;99.90;;;;;;5115952;28;20202;-72
2022/11/02 05:44:34;;;;;;;6.53;1.33;;;12.50;99.90;;;;;;5115170;28;20249;-72
2022/11/02 05:46:59;;;;;;;4.30;2.13;;;12.50;99.90;;;;;;5116008;28;20164;-72
2022/11/02 05:49:25;;;;;;;5.37;1.47;;;12.60;99.90;;;;;;5114676;28;20732;-72
2022/11/02 05:51:50;;;;;;;6.13;1.40;;;12.60;99.90;;;;;;5115778;28;20252;-71
2022/11/02 05:54:16;;;;;;;3.30;0.90;;;12.60;99.90;;;;;;5113908;28;20229;-72
2022/11/02 05:56:42;;;;;;;6.77;1.50;;;12.60;99.90;;;;;;5115797;28;20169;-72
2022/11/02 05:59:07;;;;;;;8.13;1.60;;;12.60;99.90;;;;;;5115583;28;20599;-73
2022/11/02 06:01:33;;;;;;;3.20;1.63;;;12.70;99.90;;;;;;5115419;28;20666;-73
2022/11/02 06:03:58;;;;;;;3.50;1.50;;;12.70;99.90;;;;;;5115550;28;20650;-72
2022/11/02 06:06:24;;;;;;;5.00;1.50;;;12.80;99.90;;;;;;5115244;28;20161;-73
2022/11/02 06:08:49;;;;;;;11.10;2.97;;;12.80;99.90;;;;;;5115469;28;20163;-73
2022/11/02 06:11:15;;;;;;;4.27;1.10;;;12.80;99.90;;;;;;5115374;28;20255;-73
2022/11/02 06:13:41;;;;;;;3.20;1.20;;;12.80;99.90;;;;;;5115444;28;20251;-73
2022/11/02 06:16:09;;;;;;;4.77;1.73;;;12.70;99.90;;;;;;5115307;28;20522;-73
2022/11/02 06:18:36;;;;;;;4.70;1.47;;;12.70;99.90;;;;;;5114081;28;20414;-72
2022/11/02 06:21:02;;;;;;;6.53;1.90;;;12.70;99.90;;;;;;5114947;28;20862;-72
2022/11/02 06:23:28;;;;;;;8.70;1.80;;;12.60;99.90;;;;;;5115022;28;20453;-72
2022/11/02 06:25:56;;;;;;;6.07;1.30;;;12.60;99.90;;;;;;5114862;28;20452;-73
2022/11/02 06:28:21;;;;;;;3.63;1.10;;;12.60;99.90;;;;;;5115189;28;20805;-73
2022/11/02 06:30:48;;;;;;;3.53;1.10;;;12.60;99.90;;;;;;5113597;28;20438;-72
2022/11/02 06:33:14;;;;;;;12.93;2.80;;;12.60;99.90;;;;;;5114898;28;20176;-71
2022/11/02 06:35:43;;;;;;;9.70;1.57;;;12.60;99.90;;;;;;5114768;28;20411;-72
2022/11/02 06:38:08;;;;;;;3.97;1.00;;;12.60;99.90;;;;;;5114972;28;20402;-72
2022/11/02 06:40:34;;;;;;;3.83;1.60;;;12.60;99.90;;;;;;5114189;28;20462;-72
2022/11/02 06:42:59;;;;;;;4.27;1.40;;;12.60;99.90;;;;;;5114760;28;20807;-72
2022/11/02 06:45:25;;;;;;;5.33;1.97;;;12.60;99.90;;;;;;5114602;28;20161;-72
2022/11/02 06:47:50;;;;;;;5.73;1.30;;;12.60;99.90;;;;;;5114809;28;20164;-72
2022/11/02 06:50:16;;;;;;;4.03;1.60;;;12.60;99.90;;;;;;5114581;28;20212;-72
2022/11/02 06:52:43;;;;;;;3.60;1.33;;;12.60;99.90;;;;;;5114761;28;20169;-72
2022/11/02 06:55:09;;;;;;;6.90;1.70;;;12.50;99.90;;;;;;5112921;28;20165;-72
2022/11/02 06:57:36;;;;;;;6.67;1.90;;;12.60;99.90;;;;;;5114703;28;20483;-72
2022/11/02 07:00:04;;;;;;;9.20;1.60;;;12.60;99.90;;;;;;5114383;28;20541;-72
2022/11/02 07:02:30;;;;;;;6.60;1.63;;;12.50;99.90;;;;;;5114597;28;20399;-72
2022/11/02 07:04:56;;;;;;;7.17;1.20;;;12.50;99.90;;;;;;5114214;28;20387;-71
2022/11/02 07:07:22;;;;;;;5.10;1.60;;;12.50;99.90;;;;;;5114398;28;20399;-72
2022/11/02 07:09:48;;;;;;;4.40;1.80;;;12.60;99.90;;;;;;5114115;28;20191;-72
2022/11/02 07:12:13;;;;;;;8.13;1.77;;;12.60;99.90;;;;;;5114378;28;20227;-72
2022/11/02 07:14:39;;;;;;;3.90;1.63;;;12.60;99.90;;;;;;5113865;28;20473;-72
2022/11/02 07:17:05;;;;;;;5.60;1.63;;;12.60;99.90;;;;;;5114265;28;20653;-72
2022/11/02 07:19:30;;;;;;;8.43;1.50;;;12.70;99.90;;;;;;5113899;28;20263;-72
2022/11/02 07:21:56;;;;;;;2.60;1.33;;;12.70;99.90;;;;;;5113988;28;20947;-72
2022/11/02 07:24:21;;;;;;;2.00;1.37;;;12.80;99.90;;;;;;5113698;28;20545;-72
2022/11/02 07:26:51;;;;;;;5.33;1.60;;;12.80;99.90;;;;;;5112516;28;20662;-72
2022/11/02 07:29:17;;;;;;;3.70;1.07;;;12.90;99.90;;;;;;5113761;28;20285;-72
2022/11/02 07:31:43;;;;;;;4.60;1.77;;;12.90;99.90;;;;;;5114012;28;20431;-72
2022/11/02 07:34:09;;;;;;;6.73;1.30;;;13.00;99.90;;;;;;5113823;28;20256;-72
2022/11/02 07:36:34;;;;;;;6.60;1.23;;;13.00;99.90;;;;;;5113462;28;20422;-72
2022/11/02 07:39:00;;;;;;;7.53;1.40;;;13.10;99.90;;;;;;5113725;28;20407;-72
2022/11/02 07:41:26;;;;;;;12.87;2.00;;;13.20;99.90;;;;;;5112406;28;20222;-72
2022/11/02 07:43:51;;;;;;;7.90;2.30;;;13.40;99.90;;;;;;5113717;28;20169;-72
2022/11/02 07:46:17;;;;;;;4.47;1.40;;;13.80;99.90;;;;;;5113259;28;20188;-73
2022/11/02 07:48:43;;;;;;;4.40;1.83;;;14.30;99.90;;;;;;5113387;28;20248;-72
2022/11/02 07:51:10;;;;;;;4.93;1.30;;;14.80;99.90;;;;;;5113568;28;20402;-72
2022/11/02 07:53:35;;;;;;;5.23;2.53;;;15.30;99.90;;;;;;5112300;28;20172;-73
2022/11/02 07:56:02;;;;;;;3.63;1.33;;;15.70;99.90;;;;;;5112943;28;20490;-73
2022/11/02 07:58:29;;;;;;;2.50;1.33;;;16.20;99.90;;;;;;5113478;28;20734;-73
2022/11/02 08:00:57;;;;;;;5.33;2.40;;;16.80;99.90;;;;;;5112744;28;20454;-73
2022/11/02 08:03:22;;;;;;;5.77;1.27;;;17.20;99.90;;;;;;5113390;28;20440;-73
2022/11/02 08:05:48;;;;;;;4.73;1.27;;;17.60;99.90;;;;;;5111719;28;20799;-73
2022/11/02 08:08:24;;;;;;;3.60;1.40;;;17.80;99.90;;;;;;5112854;28;20630;-73
2022/11/02 08:10:51;;;;;;;4.60;1.30;;;17.90;99.90;;;;;;5113159;28;20187;-73
2022/11/02 08:13:19;;;;;;;4.40;1.30;;;18.00;99.90;;;;;;5113205;28;20407;-73
2022/11/02 08:15:52;;;;;;;4.33;1.70;;;18.50;99.90;;;;;;5112805;28;20405;-73
2022/11/02 08:18:21;;;;;;;3.23;1.37;;;19.30;99.90;;;;;;5112897;28;20457;-73
2022/11/02 08:20:47;;;;;;;5.17;1.50;;;19.90;99.90;;;;;;5111445;28;20907;-73
2022/11/02 08:23:15;;;;;;;9.83;1.87;;;19.90;99.90;;;;;;5112886;28;20415;-73
2022/11/02 08:25:41;;;;;;;8.90;2.00;;;20.00;99.90;;;;;;5113042;27;20918;-73
2022/11/02 08:28:10;;;;;;;4.33;1.27;;;20.10;97.50;;;;;;5112489;28;20410;-73
2022/11/02 08:30:37;;;;;;;5.77;1.67;;;20.00;97.60;;;;;;5111318;28;20850;-73
2022/11/02 08:33:09;;;;;;;2.87;1.33;;;20.30;96.00;;;;;;5113132;28;20967;-73
2022/11/02 08:35:36;;;;;;;3.63;1.87;;;20.60;95.60;;;;;;5112690;28;20412;-73
2022/11/02 08:38:02;;;;;;;5.60;1.37;;;21.30;93.20;;;;;;5112610;28;20475;-73
2022/11/02 08:40:29;;;;;;;6.50;1.63;;;21.70;90.80;;;;;;5111068;28;20457;-73
2022/11/02 08:42:56;;;;;;;4.90;1.30;;;21.70;90.40;;;;;;5112738;28;20764;-73
2022/11/02 08:45:22;;;;;;;4.57;2.63;;;21.40;89.80;;;;;;5112456;28;21012;-73
2022/11/02 08:47:47;;;;;;;6.03;1.37;;;21.10;89.10;;;;;;5112490;28;20460;-73
2022/11/02 08:50:13;;;;;;;3.43;1.67;;;21.00;88.50;;;;;;5112562;28;20191;-73
2022/11/02 08:52:39;;;;;;;3.70;1.70;;;20.80;89.90;;;;;;5112608;28;20161;-73
2022/11/02 08:55:05;;;;;;;3.90;2.40;;;20.20;90.40;;;;;;5112300;28;20168;-73
2022/11/02 08:57:30;;;;;;;5.60;1.50;;;20.00;91.20;;;;;;5112169;28;20798;-73
2022/11/02 08:59:56;;;;;;;10.40;1.73;;;20.00;91.80;;;;;;5112500;28;20185;-73
2022/11/02 09:02:22;;;;;;;4.17;1.80;;;19.90;91.30;;;;;;5112414;28;20205;-72
2022/11/02 09:04:47;;;;;;;6.83;1.50;;;20.00;92.20;;;;;;5112266;28;20165;-72
2022/11/02 09:07:13;;;;;;;2.37;1.10;;;20.50;90.00;;;;;;5112193;28;20173;-72
2022/11/02 09:09:38;;;;;;;7.00;1.50;;;21.00;87.90;;;;;;5112377;28;20671;-73
2022/11/02 09:12:04;;;;;;;3.73;1.37;;;21.40;85.60;;;;;;5113345;28;20164;-72
2022/11/02 09:14:30;;;;;;;4.17;1.57;;;21.90;84.30;;;;;;5116399;28;20660;-73
2022/11/02 09:16:55;;;;;;;9.13;2.10;;;22.30;80.70;;;;;;5116392;28;20176;-72
2022/11/02 09:19:21;;;;;;;10.70;2.50;;;22.50;76.80;;;;;;5116508;28;20188;-73
2022/11/02 09:21:48;;;;;;;6.07;2.00;;;22.30;76.70;;;;;;5116536;28;20197;-73
2022/11/02 09:24:14;;;;;;;7.90;1.60;;;21.90;78.40;;;;;;5116135;28;20172;-71
2022/11/02 09:26:39;;;;;;;3.27;1.43;;;21.90;80.10;;;;;;5116130;28;20449;-73
2022/11/02 09:29:05;;;;;;;3.27;1.30;;;22.10;76.50;;;;;;5116396;28;20188;-72
2022/11/02 09:31:30;;;;;;;3.23;1.73;;;22.10;75.30;;;;;;5116434;28;20195;-72
2022/11/02 09:33:56;;;;;;;5.80;1.97;;;22.10;75.00;;;;;;5116320;28;20652;-72
2022/11/02 09:36:21;;;;;;;1.97;1.20;;;22.00;75.30;;;;;;5115739;28;20177;-73
2022/11/02 09:38:47;;;;;;;2.40;1.00;;;22.60;72.50;;;;;;5116193;28;20638;-72
2022/11/02 09:41:18;;;;;;;6.20;1.77;;;22.90;70.10;;;;;;5116195;28;20188;-73
2022/11/02 09:44:11;;;;;;;6.40;1.90;;;22.90;67.90;;;;;;5116138;28;20581;-73
2022/11/02 09:46:40;;;;;;;5.30;1.27;;;22.60;70.20;;;;;;5115164;28;20421;-72
2022/11/02 09:49:11;;;;;;;7.53;2.23;;;22.70;70.00;;;;;;5116014;27;20449;-73
2022/11/02 09:51:43;;;;;;;3.20;1.83;;;23.70;67.50;;;;;;5115977;28;20460;-74
2022/11/02 09:54:32;;;;;;;10.97;1.70;;;24.40;63.50;;;;;;5115948;28;20760;-72
2022/11/02 09:57:03;;;;;;;8.93;1.60;;;25.00;61.60;;;;;;5115562;28;20418;-73
2022/11/02 09:59:28;;;;;;;5.17;1.60;;;25.50;58.70;;;;;;5115537;28;20559;-73
2022/11/02 10:02:19;;;;;;;4.90;1.17;;;26.30;57.20;;;;;;5114413;28;20851;-73
2022/11/02 10:05:03;;;;;;;4.60;1.20;;;25.70;55.70;;;;;;5115296;28;20529;-72
2022/11/02 10:07:52;;;;;;;6.13;1.97;;;25.10;56.30;;;;;;5115397;28;20844;-72
2022/11/02 10:10:42;;;;;;;3.60;1.33;;;24.70;57.50;;;;;;5115331;28;20433;-72
2022/11/02 10:13:39;;;;;;;8.90;1.90;;;24.30;57.80;;;;;;5115430;28;20417;-73
2022/11/02 10:16:34;;;;;;;6.33;1.50;;;25.10;58.30;;;;;;5089583;28;20410;-73
2022/11/02 10:19:01;;;;;;;7.53;1.87;;;26.50;55.90;;;;;;5112094;28;20548;-72
2022/11/02 10:21:37;;;;;;;2.40;1.30;;;26.50;53.00;;;;;;5115308;28;20504;-73
2022/11/02 10:24:18;;;;;;;4.93;1.53;;;26.30;54.40;;;;;;5114593;28;20890;-73
2022/11/02 10:26:43;;;;;;;5.07;1.80;;;26.70;53.10;;;;;;5115246;28;20491;-74
2022/11/02 10:29:16;;;;;;;5.60;1.90;;;26.00;51.20;;;;;;5115153;28;20822;-73
2022/11/02 10:31:42;;;;;;;4.57;1.60;;;25.60;51.60;;;;;;5114951;28;20181;-73
2022/11/02 10:34:22;;;;;;;8.33;1.70;;;25.30;51.90;;;;;;5115185;28;20409;-73
2022/11/02 10:36:51;;;;;;;2.17;1.30;;;25.60;53.10;;;;;;5114798;28;20398;-73
2022/11/02 10:39:39;;;;;;;2.57;1.43;;;26.80;50.90;;;;;;5114963;28;20423;-73
2022/11/02 10:42:26;;;;;;;3.20;1.57;;;27.20;50.20;;;;;;5114582;28;20465;-73
2022/11/02 10:45:29;;;;;;;3.90;1.70;;;27.70;48.80;;;;;;5114399;28;20398;-73
2022/11/02 10:48:03;;;;;;;2.30;1.33;;;28.00;48.00;;;;;;5114926;28;20431;-73
2022/11/02 10:50:53;;;;;;;6.03;1.37;;;28.70;45.00;;;;;;5114585;27;20427;-73
2022/11/02 10:53:20;;;;;;;3.27;1.80;;;29.60;44.90;;;;;;5114639;28;20410;-73
2022/11/02 10:55:58;;;;;;;5.37;1.30;;;29.30;42.60;;;;;;5114509;28;20430;-73
2022/11/02 10:58:27;;;;;;;8.20;2.20;;;28.40;44.50;;;;;;5114718;28;20478;-73
2022/11/02 11:01:05;;;;;;;3.07;1.33;;;27.50;45.20;;;;;;5114247;28;20557;-73
2022/11/02 11:03:30;;;;;;;1.73;1.10;;;27.00;46.20;;;;;;5113238;28;20406;-73
2022/11/02 11:05:59;;;;;;;3.37;1.60;;;26.80;46.10;;;;;;5114254;28;20843;-73
2022/11/02 11:08:45;;;;;;;4.23;1.40;;;26.40;47.20;;;;;;5114520;28;20165;-73
2022/11/02 11:11:24;;;;;;;6.53;1.60;;;26.60;46.70;;;;;;5114275;28;20459;-73
2022/11/02 11:14:14;;;;;;;2.50;1.13;;;26.00;48.30;;;;;;5114446;28;20398;-73
2022/11/02 11:16:42;;;;;;;2.90;1.67;;;26.70;46.90;;;;;;5114513;28;20413;-73
2022/11/02 11:19:20;;;;;;;5.23;1.50;;;26.30;47.90;;;;;;5112883;28;20957;-72
2022/11/02 11:21:48;;;;;;;4.70;1.53;;;25.40;47.90;;;;;;5113929;28;20465;-72
2022/11/02 11:24:23;;;;;;;3.57;1.37;;;24.70;49.10;;;;;;5112663;28;20824;-72
2022/11/02 11:27:15;;;;;;;8.40;1.50;;;24.80;49.30;;;;;;5114227;28;20402;-72
2022/11/02 11:29:47;;;;;;;6.30;1.80;;;26.10;49.60;;;;;;5114123;28;20487;-73
2022/11/02 11:32:22;;;;;;;4.23;1.90;;;27.20;47.90;;;;;;5114004;28;20418;-72
2022/11/02 11:35:04;;;;;;;4.17;1.33;;;28.00;46.40;;;;;;5112848;28;20410;-73
2022/11/02 11:37:30;;;;;;;9.20;1.47;;;27.90;45.60;;;;;;5113802;28;20421;-72
2022/11/02 11:40:16;;;;;;;4.70;1.80;;;28.70;45.40;;;;;;5113572;28;20783;-73
2022/11/02 11:42:42;;;;;;;3.60;1.70;;;29.10;44.80;;;;;;5113873;28;20414;-73
2022/11/02 11:45:24;;;;;;;6.40;1.83;;;29.60;44.20;;;;;;5113482;28;20436;-73
2022/11/02 11:47:53;;;;;;;4.33;1.50;;;30.00;43.50;;;;;;5113808;28;20476;-73
2022/11/02 11:50:19;;;;;;;4.00;1.50;;;29.10;42.80;;;;;;5113332;28;21072;-73
2022/11/02 11:52:44;;;;;;;2.40;1.13;;;27.90;43.80;;;;;;5113638;28;20405;-73
2022/11/02 11:55:25;;;;;;;3.07;0.93;;;26.70;45.10;;;;;;5113355;28;20176;-73
2022/11/02 11:58:17;;;;;;;4.27;1.17;;;26.30;46.10;;;;;;5113617;28;20164;-73
2022/11/02 12:00:43;;;;;;;5.80;1.20;;;26.40;46.40;;;;;;5113148;28;20458;-74
2022/11/02 12:03:11;;;;;;;5.73;1.43;;;27.10;46.50;;;;;;5113537;27;20403;-74
2022/11/02 12:06:32;;;;;;;2.90;1.37;;;28.20;44.30;;;;;;5113048;28;20406;-73
2022/11/02 12:09:35;;;;;;;2.50;1.20;;;28.40;44.00;;;;;;5086738;28;20805;-73
2022/11/02 12:12:32;;;;;;;6.83;1.43;;;28.40;43.70;;;;;;5112940;28;20422;-74
2022/11/02 12:15:12;;;;;;;3.10;1.27;;;29.50;43.80;;;;;;5084737;28;20426;-70
2022/11/02 12:18:06;;;;;;;3.40;1.23;;;30.50;42.30;;;;;;5113518;28;20442;-70
2022/11/02 12:21:04;;;;;;;4.90;2.00;;;31.20;40.70;;;;;;5112672;28;20450;-70
2022/11/02 12:23:35;;;;;;;4.77;1.67;;;31.50;39.50;;;;;;5111626;28;20427;-70
2022/11/02 12:26:38;;;;;;;3.00;1.77;;;29.80;40.00;;;;;;5112688;28;20398;-74
2022/11/02 12:29:19;;;;;;;3.47;1.40;;;28.90;42.20;;;;;;5112691;28;20471;-73
2022/11/02 12:32:00;;;;;;;5.67;2.40;;;27.70;42.60;;;;;;5112941;28;20435;-73
2022/11/02 12:34:44;;;;;;;3.60;1.50;;;27.50;43.60;;;;;;5112590;28;20402;-73
2022/11/02 12:37:24;;;;;;;3.57;1.37;;;28.00;42.00;;;;;;5112920;28;20451;-74
2022/11/02 12:39:56;;;;;;;5.40;1.67;;;27.30;43.50;;;;;;5111157;28;20438;-73
2022/11/02 12:42:28;;;;;;;5.80;1.57;;;27.60;44.20;;;;;;5112650;28;20446;-73
2022/11/02 12:45:15;;;;;;;5.00;1.93;;;28.60;43.70;;;;;;5112477;28;20410;-73
2022/11/02 12:48:00;;;;;;;1.83;1.53;;;29.20;41.70;;;;;;5112866;28;20891;-73
2022/11/02 12:50:47;;;;;;;7.43;3.50;;;29.60;40.80;;;;;;5112388;28;20434;-73
2022/11/02 12:53:30;;;;;;;5.00;1.90;;;28.20;41.70;;;;;;5112748;28;20395;-73
2022/11/02 12:56:00;;;;;;;6.53;1.93;;;28.30;42.90;;;;;;5112363;28;20403;-73
2022/11/02 12:58:32;;;;;;;3.30;1.33;;;28.70;41.60;;;;;;5112126;28;20417;-73
2022/11/02 13:01:05;;;;;;;2.10;1.43;;;28.30;43.30;;;;;;5112452;28;20859;-74
2022/11/02 13:03:40;;;;;;;3.20;1.23;;;28.80;42.60;;;;;;5112496;28;20849;-74
2022/11/02 13:06:12;;;;;;;7.30;1.47;;;29.80;41.50;;;;;;5112261;28;20943;-74
2022/11/02 13:08:57;;;;;;;3.13;1.37;;;30.10;40.50;;;;;;5112233;28;20423;-74
2022/11/02 13:11:46;;;;;;;5.90;1.60;;;29.60;40.20;;;;;;5112467;28;20403;-73
2022/11/02 13:14:16;;;;;;;2.43;1.60;;;28.30;40.90;;;;;;5112314;28;20399;-74
2022/11/02 13:17:01;;;;;;;4.40;1.50;;;27.70;41.60;;;;;;5111150;28;20410;-72
2022/11/02 13:19:35;;;;;;;3.50;1.73;;;25.80;42.50;;;;;;5112132;28;20442;-73
2022/11/02 13:22:02;;;;;;;5.43;1.80;;;25.40;44.80;;;;;;5112397;28;20879;-73
2022/11/02 13:24:37;;;;;;;3.70;1.67;;;25.80;45.60;;;;;;5110667;28;20434;-73